createdAt,value
2023-04-23T00:02:40.934Z,23.27
2023-04-23T00:05:44.490Z,23.34
2023-04-23T00:08:48.838Z,23.18
2023-04-23T00:11:52.288Z,22.83
2023-04-23T00:14:56.026Z,22.72
2023-04-23T00:17:59.193Z,22.62
2023-04-23T00:21:02.493Z,22.46
2023-04-23T00:24:05.899Z,22.49
2023-04-23T00:27:09.086Z,22.45
2023-04-23T00:30:13.322Z,22.17
2023-04-23T00:33:18.811Z,22.10
2023-04-23T00:36:22.031Z,21.97
2023-04-23T00:39:25.977Z,21.65
2023-04-23T00:42:29.847Z,21.60
2023-04-23T00:45:33.131Z,21.53
2023-04-23T00:48:37.276Z,21.36
2023-04-23T00:51:40.592Z,21.30
2023-04-23T00:54:44.174Z,21.13
2023-04-23T00:57:47.705Z,20.80
2023-04-23T01:00:51.559Z,20.47
2023-04-23T01:03:55.198Z,20.17
2023-04-23T01:06:59.234Z,20.01
2023-04-23T01:10:03.586Z,20.10
2023-04-23T01:13:07.034Z,20.53
2023-04-23T01:16:11.810Z,20.23
2023-04-23T01:19:15.070Z,20.24
2023-04-23T01:22:18.329Z,19.84
2023-04-23T01:25:21.620Z,19.73
2023-04-23T01:28:24.957Z,19.62
2023-04-23T01:31:33.152Z,19.59
2023-04-23T01:34:36.855Z,19.49
2023-04-23T01:37:40.333Z,19.31
2023-04-23T01:40:44.128Z,19.33
2023-04-23T01:43:47.303Z,19.60
2023-04-23T01:46:50.580Z,19.51
2023-04-23T01:49:53.804Z,19.49
2023-04-23T01:52:57.077Z,19.63
2023-04-23T01:56:01.105Z,19.44
2023-04-23T01:59:04.835Z,18.99
2023-04-23T02:02:08.167Z,18.89
2023-04-23T02:05:14.125Z,19.32
2023-04-23T02:08:17.581Z,19.50
2023-04-23T02:11:20.809Z,19.44
2023-04-23T02:14:23.974Z,19.30
2023-04-23T02:17:29.414Z,19.09
2023-04-23T02:20:32.898Z,18.93
2023-04-23T02:23:36.129Z,18.98
2023-04-23T02:26:41.665Z,18.99
2023-04-23T02:29:44.920Z,18.29
2023-04-23T02:32:48.121Z,18.16
2023-04-23T02:35:51.502Z,18.41
2023-04-23T02:38:54.940Z,18.38
2023-04-23T02:41:58.353Z,18.29
2023-04-23T02:45:01.555Z,18.52
2023-04-23T02:48:05.122Z,18.69
2023-04-23T02:51:11.613Z,18.16
2023-04-23T02:54:15.359Z,18.00
2023-04-23T02:57:18.700Z,17.92
2023-04-23T03:00:21.940Z,17.70
2023-04-23T03:03:25.750Z,18.23
2023-04-23T03:06:29.271Z,18.40
2023-04-23T03:09:32.494Z,18.64
2023-04-23T03:12:38.434Z,18.76
2023-04-23T03:15:42.021Z,18.75
2023-04-23T03:18:45.431Z,18.92
2023-04-23T03:21:48.717Z,18.60
2023-04-23T03:24:51.928Z,18.77
2023-04-23T03:27:55.749Z,18.95
2023-04-23T03:30:59.042Z,19.28
2023-04-23T03:34:02.278Z,19.41
2023-04-23T03:37:05.428Z,19.38
2023-04-23T03:40:09.696Z,19.46
2023-04-23T03:43:13.180Z,19.62
2023-04-23T03:46:16.371Z,19.50
2023-04-23T03:49:19.608Z,19.27
2023-04-23T03:52:25.188Z,19.23
2023-04-23T03:55:28.630Z,19.00
2023-04-23T03:58:31.885Z,19.04
2023-04-23T04:01:35.267Z,18.97
2023-04-23T04:04:38.753Z,19.20
2023-04-23T04:07:42.439Z,18.95
2023-04-23T04:10:45.658Z,18.97
2023-04-23T04:13:51.732Z,18.83
2023-04-23T04:16:54.919Z,18.77
2023-04-23T04:19:58.094Z,18.74
2023-04-23T04:23:01.438Z,18.61
2023-04-23T04:26:06.897Z,18.49
2023-04-23T04:29:12.830Z,18.63
2023-04-23T04:32:15.965Z,18.66
2023-04-23T04:35:19.155Z,18.69
2023-04-23T04:38:22.359Z,18.72
2023-04-23T04:41:26.301Z,18.85
2023-04-23T04:44:30.372Z,18.89
2023-04-23T04:47:33.558Z,19.00
2023-04-23T04:50:36.812Z,19.09
2023-04-23T04:53:40.077Z,19.05
2023-04-23T04:56:45.556Z,18.84
2023-04-23T04:59:48.790Z,18.94
2023-04-23T05:02:52.398Z,18.91
2023-04-23T05:05:55.855Z,18.78
2023-04-23T05:08:59.141Z,18.58
2023-04-23T05:12:02.604Z,18.61
2023-04-23T05:15:06.267Z,18.66
2023-04-23T05:18:11.416Z,18.59
2023-04-23T05:21:16.409Z,18.57
2023-04-23T05:24:19.716Z,18.52
2023-04-23T05:27:22.978Z,18.28
2023-04-23T05:30:26.283Z,18.20
2023-04-23T05:33:33.437Z,18.22
2023-04-23T05:36:39.597Z,18.37
2023-04-23T05:39:44.497Z,18.42
2023-04-23T05:42:47.799Z,18.38
2023-04-23T05:45:53.572Z,18.09
2023-04-23T05:48:57.748Z,17.97
2023-04-23T05:52:01.027Z,17.98
2023-04-23T05:55:04.241Z,18.16
2023-04-23T05:58:07.705Z,18.33
2023-04-23T06:01:12.662Z,18.29
2023-04-23T06:04:18.233Z,18.29
2023-04-23T06:07:21.637Z,18.13
2023-04-23T06:10:24.919Z,18.34
2023-04-23T06:13:30.720Z,18.48
2023-04-23T06:16:35.146Z,18.25
2023-04-23T06:19:38.319Z,18.24
2023-04-23T06:22:41.564Z,18.16
2023-04-23T06:25:44.715Z,18.19
2023-04-23T06:28:48.111Z,18.05
2023-04-23T06:31:51.354Z,18.14
2023-04-23T06:35:00.716Z,17.83
2023-04-23T06:38:05.066Z,17.97
2023-04-23T06:41:08.711Z,17.82
2023-04-23T06:44:11.812Z,17.92
2023-04-23T06:47:15.190Z,18.00
2023-04-23T06:50:18.533Z,17.90
2023-04-23T06:53:22.552Z,17.92
2023-04-23T06:56:25.895Z,17.84
2023-04-23T06:59:29.050Z,17.62
2023-04-23T07:02:32.309Z,17.79
2023-04-23T07:05:35.519Z,17.92
2023-04-23T07:08:38.665Z,17.85
2023-04-23T07:11:41.863Z,17.63
2023-04-23T07:14:45.104Z,17.66
2023-04-23T07:17:48.314Z,17.58
2023-04-23T07:20:51.538Z,17.66
2023-04-23T07:23:58.088Z,17.59
2023-04-23T07:27:01.211Z,17.53
2023-04-23T07:30:04.919Z,17.58
2023-04-23T07:33:08.382Z,17.45
2023-04-23T07:36:11.650Z,17.44
2023-04-23T07:39:14.863Z,17.28
2023-04-23T07:42:18.228Z,17.22
2023-04-23T07:45:21.544Z,17.03
2023-04-23T07:48:27.765Z,16.86
2023-04-23T07:51:31.321Z,16.98
2023-04-23T07:54:34.528Z,17.07
2023-04-23T07:57:37.810Z,17.07
2023-04-23T08:00:41.081Z,17.15
2023-04-23T08:03:44.554Z,17.16
2023-04-23T08:06:48.118Z,16.88
2023-04-23T08:09:51.254Z,17.06
2023-04-23T08:12:54.504Z,17.10
2023-04-23T08:15:57.705Z,16.87
2023-04-23T08:19:05.926Z,17.02
2023-04-23T08:22:09.722Z,16.59
2023-04-23T08:25:13.378Z,16.44
2023-04-23T08:28:16.549Z,16.29
2023-04-23T08:31:26.517Z,16.26
2023-04-23T08:34:31.177Z,16.25
2023-04-23T08:37:34.796Z,15.97
2023-04-23T08:40:38.334Z,16.02
2023-04-23T08:44:03.193Z,15.86
2023-04-23T08:47:06.520Z,15.82
2023-04-23T08:50:22.570Z,15.79
2023-04-23T08:53:27.275Z,15.73
2023-04-23T08:56:31.043Z,15.73
2023-04-23T08:59:34.723Z,15.98
2023-04-23T09:02:43.267Z,15.76
2023-04-23T09:05:46.687Z,15.74
2023-04-23T09:08:49.972Z,15.70
2023-04-23T09:11:54.805Z,15.74
2023-04-23T09:15:01.519Z,15.70
2023-04-23T09:18:05.149Z,15.82
2023-04-23T09:21:10.660Z,16.16
2023-04-23T09:24:14.467Z,15.92
2023-04-23T09:27:24.844Z,15.97
2023-04-23T09:30:28.164Z,16.05
2023-04-23T09:33:33.776Z,15.99
2023-04-23T09:36:38.244Z,15.97
2023-04-23T09:39:41.912Z,16.07
2023-04-23T09:42:49.999Z,16.22
2023-04-23T09:45:53.280Z,16.09
2023-04-23T09:48:58.123Z,16.01
2023-04-23T09:52:07.067Z,15.91
2023-04-23T09:55:10.635Z,15.86
2023-04-23T09:58:15.690Z,16.25
2023-04-23T10:01:19.149Z,16.13
2023-04-23T10:04:25.184Z,16.25
2023-04-23T10:07:28.496Z,16.12
2023-04-23T10:10:32.186Z,16.18
2023-04-23T10:13:37.224Z,15.92
2023-04-23T10:16:48.587Z,15.94
2023-04-23T10:19:52.918Z,15.89
2023-04-23T10:22:59.680Z,15.81
2023-04-23T10:26:05.367Z,15.89
2023-04-23T10:29:12.910Z,15.95
2023-04-23T10:32:16.921Z,16.06
2023-04-23T10:35:20.187Z,16.05
2023-04-23T10:38:23.623Z,15.89
2023-04-23T10:41:34.678Z,15.97
2023-04-23T10:47:47.660Z,15.98
2023-04-23T10:51:09.531Z,15.77
2023-04-23T10:54:22.083Z,15.85
2023-04-23T10:57:27.582Z,15.90
2023-04-23T11:00:44.082Z,15.72
2023-04-23T11:03:47.536Z,15.72
2023-04-23T11:06:51.542Z,15.50
2023-04-23T11:09:54.719Z,15.61
2023-04-23T11:12:57.994Z,15.65
2023-04-23T11:16:18.020Z,15.61
2023-04-23T11:19:20.929Z,16.01
2023-04-23T11:22:24.032Z,15.93
2023-04-23T11:25:28.474Z,15.83
2023-04-23T11:28:33.265Z,15.96
2023-04-23T11:31:40.794Z,15.80
2023-04-23T11:34:49.253Z,15.89
2023-04-23T11:37:52.413Z,15.76
2023-04-23T11:40:55.596Z,15.72
2023-04-23T11:43:58.825Z,15.82
2023-04-23T11:47:02.425Z,15.72
2023-04-23T11:50:06.088Z,15.75
2023-04-23T11:53:13.659Z,15.77
2023-04-23T11:56:20.422Z,15.47
2023-04-23T11:59:27.102Z,15.64
2023-04-23T12:02:31.162Z,15.71
2023-04-23T12:05:36.825Z,15.64
2023-04-23T12:08:41.244Z,15.79
2023-04-23T12:11:45.752Z,15.81
2023-04-23T12:14:49.083Z,15.35
2023-04-23T12:17:53.208Z,15.35
2023-04-23T12:20:58.940Z,15.34
2023-04-23T12:24:04.545Z,15.44
2023-04-23T12:27:07.733Z,15.28
2023-04-23T12:30:12.730Z,15.31
2023-04-23T12:33:15.928Z,15.12
2023-04-23T12:36:19.161Z,15.25
2023-04-23T12:39:26.167Z,15.72
2023-04-23T12:42:29.364Z,15.79
2023-04-23T12:45:38.304Z,15.54
2023-04-23T12:48:41.523Z,15.66
2023-04-23T12:51:44.713Z,15.55
2023-04-23T12:54:50.212Z,15.86
2023-04-23T12:57:53.393Z,15.74
2023-04-23T13:00:56.617Z,15.64
2023-04-23T13:03:59.891Z,15.57
2023-04-23T13:07:03.461Z,15.43
2023-04-23T13:10:07.295Z,15.56
2023-04-23T13:13:10.489Z,15.71
2023-04-23T13:16:13.878Z,15.82
2023-04-23T13:19:17.581Z,16.01
2023-04-23T13:22:21.739Z,16.15
2023-04-23T13:25:26.273Z,16.02
2023-04-23T13:28:29.437Z,15.78
2023-04-23T13:31:32.834Z,15.38
2023-04-23T13:34:38.406Z,15.96
2023-04-23T13:37:41.575Z,15.92
2023-04-23T13:40:44.828Z,16.52
2023-04-23T13:43:50.521Z,16.78
2023-04-23T13:46:53.850Z,16.65
2023-04-23T13:49:57.004Z,16.33
2023-04-23T13:53:01.399Z,15.97
2023-04-23T13:56:04.677Z,16.20
2023-04-23T13:59:18.281Z,16.07
2023-04-23T14:02:23.846Z,15.93
2023-04-23T14:05:27.102Z,15.62
2023-04-23T14:08:30.384Z,15.83
2023-04-23T14:11:33.579Z,15.67
2023-04-23T14:14:36.853Z,15.85
2023-04-23T14:17:42.475Z,15.83
2023-04-23T14:20:45.709Z,15.79
2023-04-23T14:23:48.917Z,15.56
2023-04-23T14:26:52.150Z,15.59
2023-04-23T14:29:59.434Z,15.39
2023-04-23T14:33:02.630Z,15.44
2023-04-23T14:36:05.882Z,15.56
2023-04-23T14:39:09.185Z,15.41
2023-04-23T14:42:12.364Z,15.84
2023-04-23T14:45:18.500Z,16.02
2023-04-23T14:48:21.626Z,16.15
2023-04-23T14:51:25.177Z,16.21
2023-04-23T14:54:28.437Z,15.90
2023-04-23T14:57:31.554Z,16.32
2023-04-23T15:00:34.901Z,16.92
2023-04-23T15:03:38.457Z,16.85
2023-04-23T15:06:41.759Z,17.40
2023-04-23T15:09:44.986Z,17.16
2023-04-23T15:13:03.914Z,17.14
2023-04-23T15:16:46.739Z,17.67
2023-04-23T15:19:52.312Z,17.08
2023-04-23T15:22:55.526Z,17.58
2023-04-23T15:25:58.808Z,17.54
2023-04-23T15:29:02.163Z,17.77
2023-04-23T15:32:05.393Z,17.58
2023-04-23T15:35:08.886Z,17.63
2023-04-23T15:38:12.012Z,17.01
2023-04-23T15:41:15.178Z,17.08
2023-04-23T15:44:18.616Z,17.72
2023-04-23T15:47:23.186Z,18.12
2023-04-23T15:50:26.401Z,18.00
2023-04-23T15:53:31.567Z,17.90
2023-04-23T15:56:35.642Z,17.65
2023-04-23T15:59:38.825Z,17.52
2023-04-23T16:02:42.939Z,17.71
2023-04-23T16:05:46.148Z,18.04
2023-04-23T16:08:49.299Z,18.07
2023-04-23T16:11:53.375Z,17.92
2023-04-23T16:14:56.618Z,18.19
2023-04-23T16:18:00.261Z,18.29
2023-04-23T16:21:03.663Z,18.75
2023-04-23T16:24:07.010Z,18.69
2023-04-23T16:27:10.250Z,19.00
2023-04-23T16:30:13.760Z,18.84
2023-04-23T16:33:16.989Z,18.32
2023-04-23T16:36:21.167Z,18.97
2023-04-23T16:39:24.537Z,19.03
2023-04-23T16:42:27.759Z,19.04
2023-04-23T16:45:31.008Z,18.58
2023-04-23T16:48:34.188Z,18.18
2023-04-23T16:51:37.572Z,18.30
2023-04-23T16:54:40.918Z,17.87
2023-04-23T16:57:44.492Z,17.51
2023-04-23T17:00:47.746Z,17.64
2023-04-23T17:03:51.192Z,17.71
2023-04-23T17:06:54.421Z,17.24
2023-04-23T17:09:57.904Z,17.19
2023-04-23T17:13:01.151Z,17.40
2023-04-23T17:16:05.248Z,17.23
2023-04-23T17:19:08.478Z,17.36
2023-04-23T17:22:12.302Z,17.55
2023-04-23T17:25:18.345Z,17.69
2023-04-23T17:28:21.709Z,17.62
2023-04-23T17:31:24.971Z,17.44
2023-04-23T17:34:28.283Z,17.66
2023-04-23T17:37:34.239Z,17.94
2023-04-23T17:40:38.203Z,18.05
2023-04-23T17:43:42.484Z,17.81
2023-04-23T17:46:45.970Z,18.01
2023-04-23T17:49:49.225Z,18.03
2023-04-23T17:52:52.464Z,18.32
2023-04-23T17:55:55.655Z,18.07
2023-04-23T17:58:58.822Z,17.83
2023-04-23T18:02:04.421Z,17.98
2023-04-23T18:05:12.889Z,17.65
2023-04-23T18:08:15.982Z,17.40
2023-04-23T18:11:21.070Z,17.61
2023-04-23T18:14:24.250Z,17.66
2023-04-23T18:17:27.866Z,17.31
2023-04-23T18:20:31.085Z,17.47
2023-04-23T18:23:34.645Z,17.54
2023-04-23T18:26:37.768Z,17.59
2023-04-23T18:29:44.741Z,17.55
2023-04-23T18:32:49.719Z,17.36
2023-04-23T18:35:56.442Z,17.29
2023-04-23T18:39:00.276Z,17.43
2023-04-23T18:42:03.503Z,17.60
2023-04-23T18:45:07.056Z,17.40
2023-04-23T18:48:39.371Z,17.33
2023-04-23T18:51:46.557Z,17.14
2023-04-23T18:54:49.758Z,16.95
2023-04-23T18:57:52.947Z,17.03
2023-04-23T19:00:59.022Z,16.88
2023-04-23T19:04:04.777Z,16.70
2023-04-23T19:07:08.154Z,16.86
2023-04-23T19:10:14.391Z,16.96
2023-04-23T19:13:22.467Z,17.18
2023-04-23T19:16:25.732Z,17.15
2023-04-23T19:19:28.882Z,16.74
2023-04-23T19:22:32.690Z,16.90
2023-04-23T19:25:38.857Z,16.85
2023-04-23T19:28:42.100Z,16.93
2023-04-23T19:31:45.455Z,17.04
2023-04-23T19:34:49.026Z,16.76
2023-04-23T19:37:52.246Z,16.45
2023-04-23T19:40:55.576Z,16.56
2023-04-23T19:44:01.642Z,16.59
2023-04-23T19:47:04.921Z,16.14
2023-04-23T19:50:08.721Z,15.83
2023-04-23T19:53:11.971Z,15.79
2023-04-23T19:56:15.295Z,15.86
2023-04-23T19:59:18.796Z,15.99
2023-04-23T20:02:22.106Z,15.59
2023-04-23T20:05:25.297Z,15.78
2023-04-23T20:08:28.612Z,15.99
2023-04-23T20:11:32.022Z,16.19
2023-04-23T20:14:35.964Z,15.96
2023-04-23T20:17:39.329Z,16.07
2023-04-23T20:20:42.645Z,16.17
2023-04-23T20:23:45.890Z,15.85
2023-04-23T20:26:50.719Z,16.14
2023-04-23T20:29:53.976Z,16.27
2023-04-23T20:32:58.033Z,16.33
2023-04-23T20:36:01.235Z,16.41
2023-04-23T20:39:04.498Z,16.39
2023-04-23T20:42:07.744Z,16.44
2023-04-23T20:45:11.427Z,16.47
2023-04-23T20:48:17.057Z,16.79
2023-04-23T20:51:20.971Z,16.69
2023-04-23T20:54:24.127Z,16.53
2023-04-23T20:57:27.284Z,16.64
2023-04-23T21:00:32.803Z,16.43
2023-04-23T21:03:36.182Z,16.16
2023-04-23T21:06:40.531Z,16.68
2023-04-23T21:09:43.988Z,16.49
2023-04-23T21:12:47.509Z,16.49
2023-04-23T21:15:51.028Z,16.66
2023-04-23T21:18:54.206Z,16.49
2023-04-23T21:21:57.446Z,16.34
2023-04-23T21:25:00.663Z,16.39
2023-04-23T21:28:04.365Z,16.14
2023-04-23T21:31:18.713Z,15.97
2023-04-23T21:34:21.904Z,16.09
2023-04-23T21:37:27.387Z,16.14
2023-04-23T21:40:33.534Z,16.17
2023-04-23T21:43:39.789Z,16.21
2023-04-23T21:46:43.579Z,16.54
2023-04-23T21:49:46.791Z,16.74
2023-04-23T21:52:49.954Z,16.82
2023-04-23T21:55:54.370Z,16.54
2023-04-23T21:58:57.513Z,16.60
2023-04-23T22:02:00.718Z,16.23
2023-04-23T22:05:04.103Z,16.41
2023-04-23T22:08:09.315Z,16.21
2023-04-23T22:11:13.086Z,16.54
2023-04-23T22:14:16.308Z,16.15
2023-04-23T22:17:19.761Z,15.92
2023-04-23T22:20:23.055Z,16.01
2023-04-23T22:23:26.243Z,15.59
2023-04-23T22:26:29.422Z,15.94
2023-04-23T22:29:33.112Z,16.04
2023-04-23T22:32:37.452Z,15.75
2023-04-23T22:35:40.697Z,15.73
2023-04-23T22:38:43.837Z,15.35
2023-04-23T22:41:47.218Z,15.80
2023-04-23T22:44:50.472Z,15.76
2023-04-23T22:47:53.668Z,15.69
2023-04-23T22:50:57.081Z,15.53
2023-04-23T22:54:00.304Z,15.88
2023-04-23T22:57:03.754Z,15.88
2023-04-23T23:00:09.347Z,16.19
2023-04-23T23:03:12.686Z,15.63
2023-04-23T23:06:15.998Z,15.83
2023-04-23T23:09:19.180Z,15.96
2023-04-23T23:12:22.374Z,16.00
2023-04-23T23:15:27.571Z,15.92
2023-04-23T23:18:31.181Z,15.74
2023-04-23T23:21:34.388Z,15.69
2023-04-23T23:24:37.810Z,15.36
2023-04-23T23:27:40.972Z,15.74
2023-04-23T23:30:44.274Z,15.62
2023-04-23T23:33:47.545Z,15.20
2023-04-23T23:36:50.748Z,15.33
2023-04-23T23:39:54.000Z,15.41
2023-04-23T23:42:57.356Z,15.22
2023-04-23T23:46:00.608Z,15.38
2023-04-23T23:49:03.821Z,15.23
2023-04-23T23:52:07.197Z,15.04
2023-04-23T23:55:10.394Z,15.39
2023-04-23T23:58:13.561Z,15.46
